createdAt,value
2018-09-23T00:01:05.805Z,23.1
2018-09-23T00:02:15.487Z,23.05
2018-09-23T00:03:25.171Z,23.13
2018-09-23T00:04:34.359Z,23.09
2018-09-23T00:05:43.007Z,23.15
2018-09-23T00:06:52.676Z,23.1
2018-09-23T00:08:01.838Z,23.12
2018-09-23T00:09:11.016Z,23.12
2018-09-23T00:10:20.696Z,23.1
2018-09-23T00:11:29.864Z,23.07
2018-09-23T00:12:39.600Z,23.1
2018-09-23T00:13:48.750Z,23.05
2018-09-23T00:14:58.150Z,23.02
2018-09-23T00:16:07.824Z,23.02
2018-09-23T00:17:17.503Z,23.07
2018-09-23T00:18:26.663Z,23.1
2018-09-23T00:19:35.817Z,23
2018-09-23T00:20:45.500Z,23.05
2018-09-23T00:21:54.927Z,23
2018-09-23T00:23:04.106Z,23.01
2018-09-23T00:24:13.019Z,23.09
2018-09-23T00:25:22.514Z,23.1
2018-09-23T00:26:32.454Z,23
2018-09-23T00:27:41.875Z,23.05
2018-09-23T00:28:51.078Z,22.95
2018-09-23T00:30:00.502Z,23.01
2018-09-23T00:31:10.180Z,23.01
2018-09-23T00:32:19.912Z,22.97
2018-09-23T00:33:29.866Z,22.95
2018-09-23T00:34:39.287Z,22.94
2018-09-23T00:35:48.441Z,22.95
2018-09-23T00:36:57.603Z,22.98
2018-09-23T00:38:06.765Z,22.97
2018-09-23T00:39:16.692Z,22.91
2018-09-23T00:40:26.374Z,22.9
2018-09-23T00:41:35.823Z,22.92
2018-09-23T00:42:45.049Z,22.97
2018-09-23T00:43:54.734Z,22.92
2018-09-23T00:45:04.410Z,22.9
2018-09-23T00:46:13.834Z,22.88
2018-09-23T00:47:23.521Z,22.94
2018-09-23T00:48:32.685Z,22.97
2018-09-23T00:49:41.874Z,22.94
2018-09-23T00:50:51.563Z,22.95
2018-09-23T00:52:00.991Z,22.88
2018-09-23T00:53:10.686Z,22.92
2018-09-23T00:54:20.369Z,22.92
2018-09-23T00:55:30.051Z,22.88
2018-09-23T00:56:39.726Z,22.91
2018-09-23T00:57:49.157Z,22.9
2018-09-23T00:58:58.576Z,22.86
2018-09-23T01:00:07.481Z,22.86
2018-09-23T01:01:16.404Z,22.92
2018-09-23T01:02:26.369Z,22.82
2018-09-23T01:03:35.781Z,22.9
2018-09-23T01:04:45.460Z,22.88
2018-09-23T01:05:54.361Z,22.9
2018-09-23T01:07:04.033Z,22.86
2018-09-23T01:08:12.945Z,22.88
2018-09-23T01:09:22.615Z,22.79
2018-09-23T01:10:32.062Z,22.79
2018-09-23T01:11:41.239Z,22.8
2018-09-23T01:12:50.660Z,22.83
2018-09-23T01:14:00.338Z,22.83
2018-09-23T01:15:10.025Z,22.82
2018-09-23T01:16:19.987Z,22.8
2018-09-23T01:17:29.984Z,22.79
2018-09-23T01:18:39.414Z,22.85
2018-09-23T01:19:48.315Z,22.79
2018-09-23T01:20:57.755Z,22.85
2018-09-23T01:22:06.394Z,22.8
2018-09-23T01:23:15.573Z,22.83
2018-09-23T01:24:24.478Z,22.82
2018-09-23T01:25:34.161Z,22.77
2018-09-23T01:26:43.570Z,22.82
2018-09-23T01:27:52.996Z,22.82
2018-09-23T01:29:02.432Z,22.83
2018-09-23T01:30:12.115Z,22.8
2018-09-23T01:31:21.273Z,22.77
2018-09-23T01:32:31.006Z,22.8
2018-09-23T01:33:40.455Z,22.73
2018-09-23T01:34:50.141Z,22.76
2018-09-23T01:35:59.831Z,22.79
2018-09-23T01:37:09.264Z,22.8
2018-09-23T01:38:18.441Z,22.73
2018-09-23T01:39:27.876Z,22.82
2018-09-23T01:40:37.289Z,22.8
2018-09-23T01:41:46.710Z,22.75
2018-09-23T01:42:55.867Z,22.79
2018-09-23T01:44:04.774Z,22.8
2018-09-23T01:45:14.199Z,22.82
2018-09-23T01:46:23.635Z,22.77
2018-09-23T01:47:32.794Z,22.72
2018-09-23T01:48:42.224Z,22.79
2018-09-23T01:49:51.641Z,22.75
2018-09-23T01:51:00.280Z,22.72
2018-09-23T01:52:09.707Z,22.72
2018-09-23T01:53:18.893Z,22.72
2018-09-23T01:54:28.055Z,22.65
2018-09-23T01:55:37.987Z,22.73
2018-09-23T01:56:47.655Z,22.72
2018-09-23T01:57:57.080Z,22.68
2018-09-23T01:59:06.762Z,22.7
2018-09-23T02:00:16.190Z,22.62
2018-09-23T02:01:25.338Z,22.68
2018-09-23T02:02:34.514Z,22.6
2018-09-23T02:03:43.683Z,22.65
2018-09-23T02:04:53.353Z,22.73
2018-09-23T02:06:03.450Z,22.62
2018-09-23T02:07:12.602Z,22.65
2018-09-23T02:08:21.501Z,22.6
2018-09-23T02:09:30.667Z,22.65
2018-09-23T02:10:40.097Z,22.64
2018-09-23T02:11:49.774Z,22.67
2018-09-23T02:12:59.202Z,22.67
2018-09-23T02:14:08.885Z,22.64
2018-09-23T02:15:18.578Z,22.58
2018-09-23T02:16:27.999Z,22.67
2018-09-23T02:17:37.173Z,22.61
2018-09-23T02:18:46.602Z,22.58
2018-09-23T02:19:56.284Z,22.58
2018-09-23T02:21:05.503Z,22.57
2018-09-23T02:22:15.274Z,22.55
2018-09-23T02:23:24.720Z,22.61
2018-09-23T02:24:34.429Z,22.68
2018-09-23T02:25:44.366Z,22.64
2018-09-23T02:26:53.535Z,22.52
2018-09-23T02:28:02.709Z,22.57
2018-09-23T02:29:12.120Z,22.68
2018-09-23T02:30:20.771Z,22.62
2018-09-23T02:31:29.455Z,22.57
2018-09-23T02:32:38.897Z,22.67
2018-09-23T02:33:47.545Z,22.67
2018-09-23T02:34:56.701Z,22.67
2018-09-23T02:36:06.376Z,22.55
2018-09-23T02:37:16.308Z,22.67
2018-09-23T02:38:25.991Z,22.62
2018-09-23T02:39:35.660Z,22.68
2018-09-23T02:40:45.091Z,22.68
2018-09-23T02:41:54.264Z,22.52
2018-09-23T02:43:03.433Z,22.65
2018-09-23T02:44:12.893Z,22.61
2018-09-23T02:45:22.313Z,22.55
2018-09-23T02:46:31.478Z,22.49
2018-09-23T02:47:40.901Z,22.57
2018-09-23T02:48:50.357Z,22.6
2018-09-23T02:50:00.050Z,22.6
2018-09-23T02:51:09.519Z,22.57
2018-09-23T02:52:19.456Z,22.6
2018-09-23T02:53:29.130Z,22.55
2018-09-23T02:54:38.297Z,22.54
2018-09-23T02:55:47.212Z,22.55
2018-09-23T02:56:56.906Z,22.58
2018-09-23T02:58:06.600Z,22.6
2018-09-23T02:59:16.018Z,22.65
2018-09-23T03:00:25.698Z,22.61
2018-09-23T03:01:35.115Z,22.55
2018-09-23T03:02:44.804Z,22.62
2018-09-23T03:03:54.484Z,22.54
2018-09-23T03:05:04.144Z,22.57
2018-09-23T03:06:13.292Z,22.61
2018-09-23T03:07:22.721Z,22.58
2018-09-23T03:08:32.402Z,22.54
2018-09-23T03:09:42.068Z,22.52
2018-09-23T03:10:50.991Z,22.55
2018-09-23T03:12:00.660Z,22.55
2018-09-23T03:13:10.081Z,22.49
2018-09-23T03:14:20.042Z,22.55
2018-09-23T03:15:29.962Z,22.43
2018-09-23T03:16:39.114Z,22.46
2018-09-23T03:17:49.051Z,22.45
2018-09-23T03:18:58.807Z,22.43
2018-09-23T03:20:08.229Z,22.49
2018-09-23T03:21:17.137Z,22.39
2018-09-23T03:22:26.841Z,22.42
2018-09-23T03:23:36.006Z,22.45
2018-09-23T03:24:44.919Z,22.45
2018-09-23T03:25:54.593Z,22.45
2018-09-23T03:27:04.032Z,22.46
2018-09-23T03:28:13.709Z,22.45
2018-09-23T03:29:23.643Z,22.4
2018-09-23T03:30:32.822Z,22.45
2018-09-23T03:31:42.515Z,22.47
2018-09-23T03:32:52.199Z,22.46
2018-09-23T03:34:01.882Z,22.45
2018-09-23T03:35:11.557Z,22.4
2018-09-23T03:36:20.985Z,22.46
2018-09-23T03:37:30.679Z,22.4
2018-09-23T03:38:40.630Z,22.4
2018-09-23T03:39:50.303Z,22.39
2018-09-23T03:41:00.004Z,22.39
2018-09-23T03:42:09.675Z,22.45
2018-09-23T03:43:19.104Z,22.45
2018-09-23T03:44:29.053Z,22.39
2018-09-23T03:45:38.737Z,22.4
2018-09-23T03:46:48.406Z,22.36
2018-09-23T03:47:58.357Z,22.36
2018-09-23T03:49:08.043Z,22.42
2018-09-23T03:50:17.994Z,22.39
2018-09-23T03:51:27.412Z,22.43
2018-09-23T03:52:36.823Z,22.39
2018-09-23T03:53:46.776Z,22.39
2018-09-23T03:54:56.451Z,22.42
2018-09-23T03:56:05.638Z,22.39
2018-09-23T03:57:15.302Z,22.4
2018-09-23T03:58:25.256Z,22.39
2018-09-23T03:59:35.219Z,22.37
2018-09-23T04:00:45.220Z,22.35
2018-09-23T04:01:54.649Z,22.39
2018-09-23T04:03:04.351Z,22.4
2018-09-23T04:04:13.790Z,22.35
2018-09-23T04:05:22.958Z,22.37
2018-09-23T04:06:32.119Z,22.39
2018-09-23T04:07:41.787Z,22.35
2018-09-23T04:08:51.217Z,22.3
2018-09-23T04:10:00.886Z,22.35
2018-09-23T04:11:10.310Z,22.37
2018-09-23T04:12:19.827Z,22.39
2018-09-23T04:13:29.581Z,22.4
2018-09-23T04:14:39.252Z,22.42
2018-09-23T04:15:49.277Z,22.3
2018-09-23T04:16:58.700Z,22.36
2018-09-23T04:18:08.127Z,22.28
2018-09-23T04:19:17.039Z,22.31
2018-09-23T04:20:26.976Z,22.31
2018-09-23T04:21:36.411Z,22.27
2018-09-23T04:22:46.098Z,22.31
2018-09-23T04:23:55.527Z,22.31
2018-09-23T04:25:04.704Z,22.35
2018-09-23T04:26:14.124Z,22.22
2018-09-23T04:27:23.574Z,22.35
2018-09-23T04:28:32.740Z,22.33
2018-09-23T04:29:42.165Z,22.28
2018-09-23T04:30:51.853Z,22.27
2018-09-23T04:32:01.027Z,22.27
2018-09-23T04:33:10.714Z,22.3
2018-09-23T04:34:20.134Z,22.3
2018-09-23T04:35:29.841Z,22.28
2018-09-23T04:36:39.266Z,22.3
2018-09-23T04:37:48.946Z,22.25
2018-09-23T04:38:58.620Z,22.28
2018-09-23T04:40:07.860Z,22.3
2018-09-23T04:41:17.529Z,22.24
2018-09-23T04:42:27.486Z,22.35
2018-09-23T04:43:36.916Z,22.27
2018-09-23T04:44:46.672Z,22.31
2018-09-23T04:45:56.457Z,22.27
2018-09-23T04:47:05.872Z,22.33
2018-09-23T04:48:15.575Z,22.33
2018-09-23T04:49:24.232Z,22.28
2018-09-23T04:50:33.652Z,22.24
2018-09-23T04:51:42.823Z,22.31
2018-09-23T04:52:52.253Z,22.3
2018-09-23T04:54:01.426Z,22.25
2018-09-23T04:55:11.174Z,22.21
2018-09-23T04:56:20.917Z,22.3
2018-09-23T04:57:30.593Z,22.22
2018-09-23T04:58:40.260Z,22.22
2018-09-23T04:59:49.435Z,22.2
2018-09-23T05:00:59.373Z,22.22
2018-09-23T05:02:08.541Z,22.25
2018-09-23T05:03:17.949Z,22.24
2018-09-23T05:04:27.410Z,22.2
2018-09-23T05:05:37.117Z,22.22
2018-09-23T05:06:46.290Z,22.25
2018-09-23T05:07:55.721Z,22.27
2018-09-23T05:09:05.134Z,22.25
2018-09-23T05:10:15.071Z,22.28
2018-09-23T05:11:24.494Z,22.22
2018-09-23T05:12:33.660Z,22.22
2018-09-23T05:13:43.077Z,22.25
2018-09-23T05:14:52.245Z,22.25
2018-09-23T05:16:01.695Z,22.2
2018-09-23T05:17:11.370Z,22.2
2018-09-23T05:18:20.787Z,22.14
2018-09-23T05:19:30.239Z,22.25
2018-09-23T05:20:39.668Z,22.25
2018-09-23T05:21:49.082Z,22.21
2018-09-23T05:22:58.241Z,22.21
2018-09-23T05:24:07.959Z,22.22
2018-09-23T05:25:17.381Z,22.25
2018-09-23T05:26:26.523Z,22.27
2018-09-23T05:27:36.465Z,22.28
2018-09-23T05:28:45.613Z,22.27
2018-09-23T05:29:54.774Z,22.24
2018-09-23T05:31:04.330Z,22.25
2018-09-23T05:32:13.927Z,22.22
2018-09-23T05:33:22.837Z,22.2
2018-09-23T05:34:32.546Z,22.25
2018-09-23T05:35:42.614Z,22.24
2018-09-23T05:36:52.040Z,22.17
2018-09-23T05:38:01.470Z,22.21
2018-09-23T05:39:11.127Z,22.2
2018-09-23T05:40:19.769Z,22.21
2018-09-23T05:41:28.940Z,22.18
2018-09-23T05:42:37.847Z,22.2
2018-09-23T05:43:47.539Z,22.2
2018-09-23T05:44:57.051Z,22.21
2018-09-23T05:46:06.481Z,22.24
2018-09-23T05:47:15.641Z,22.14
2018-09-23T05:48:25.744Z,22.25
2018-09-23T05:49:34.911Z,22.25
2018-09-23T05:50:44.330Z,22.24
2018-09-23T05:51:53.504Z,22.18
2018-09-23T05:53:03.267Z,22.22
2018-09-23T05:54:12.748Z,22.15
2018-09-23T05:55:22.180Z,22.2
2018-09-23T05:56:31.602Z,22.2
2018-09-23T05:57:41.044Z,22.21
2018-09-23T05:58:50.193Z,22.21
2018-09-23T05:59:59.616Z,22.2
2018-09-23T06:01:09.021Z,22.21
2018-09-23T06:02:18.177Z,22.15
2018-09-23T06:03:27.340Z,22.24
2018-09-23T06:04:37.035Z,22.18
2018-09-23T06:05:46.186Z,22.22
2018-09-23T06:06:55.097Z,22.21
2018-09-23T06:08:04.524Z,22.15
2018-09-23T06:09:13.956Z,22.17
2018-09-23T06:10:23.646Z,22.2
2018-09-23T06:11:32.562Z,22.24
2018-09-23T06:12:41.705Z,22.21
2018-09-23T06:13:51.112Z,22.22
2018-09-23T06:15:01.048Z,22.21
2018-09-23T06:16:10.462Z,22.18
2018-09-23T06:17:19.624Z,22.27
2018-09-23T06:18:29.108Z,22.21
2018-09-23T06:19:39.058Z,22.18
2018-09-23T06:20:48.517Z,22.22
2018-09-23T06:21:57.939Z,22.25
2018-09-23T06:23:07.351Z,22.24
2018-09-23T06:24:16.790Z,22.25
2018-09-23T06:25:26.367Z,22.2
2018-09-23T06:26:36.052Z,22.2
2018-09-23T06:27:45.475Z,22.21
2018-09-23T06:28:54.894Z,22.18
2018-09-23T06:30:04.317Z,22.22
2018-09-23T06:31:13.484Z,22.17
2018-09-23T06:32:22.633Z,22.22
2018-09-23T06:33:31.784Z,22.24
2018-09-23T06:34:41.246Z,22.25
2018-09-23T06:35:51.168Z,22.18
2018-09-23T06:37:01.167Z,22.22
2018-09-23T06:38:11.097Z,22.2
2018-09-23T06:39:19.992Z,22.2
2018-09-23T06:40:29.686Z,22.27
2018-09-23T06:41:39.359Z,22.21
2018-09-23T06:42:48.780Z,22.24
2018-09-23T06:43:58.203Z,22.31
2018-09-23T06:45:07.633Z,22.22
2018-09-23T06:46:17.070Z,22.27
2018-09-23T06:47:27.005Z,22.24
2018-09-23T06:48:36.965Z,22.21
2018-09-23T06:49:45.873Z,22.22
2018-09-23T06:50:55.031Z,22.28
2018-09-23T06:52:04.802Z,22.22
2018-09-23T06:53:13.992Z,22.18
2018-09-23T06:54:23.407Z,22.17
2018-09-23T06:55:33.518Z,22.22
2018-09-23T06:56:43.197Z,22.2
2018-09-23T06:57:52.882Z,22.18
2018-09-23T06:59:02.036Z,22.21
2018-09-23T07:00:11.703Z,22.27
2018-09-23T07:01:20.860Z,22.2
2018-09-23T07:02:30.273Z,22.24
2018-09-23T07:03:39.428Z,22.18
2018-09-23T07:04:48.772Z,22.21
2018-09-23T07:05:57.986Z,22.22
2018-09-23T07:07:06.910Z,22.28
2018-09-23T07:08:16.060Z,22.2
2018-09-23T07:09:25.739Z,22.25
2018-09-23T07:10:35.012Z,22.25
2018-09-23T07:11:44.697Z,22.27
2018-09-23T07:12:53.921Z,22.21
2018-09-23T07:14:03.089Z,22.24
2018-09-23T07:15:12.513Z,22.22
2018-09-23T07:16:21.931Z,22.18
2018-09-23T07:17:31.653Z,22.24
2018-09-23T07:18:40.833Z,22.25
2018-09-23T07:19:50.000Z,22.25
2018-09-23T07:20:59.219Z,22.22
2018-09-23T07:22:20.863Z,22.27
2018-09-23T07:23:30.283Z,22.22
2018-09-23T07:24:39.549Z,22.31
2018-09-23T07:25:48.775Z,22.28
2018-09-23T07:26:57.929Z,22.27
2018-09-23T07:28:07.613Z,22.28
2018-09-23T07:29:17.030Z,22.22
2018-09-23T07:30:26.442Z,22.35
2018-09-23T07:31:35.894Z,22.27
2018-09-23T07:32:45.567Z,22.3
2018-09-23T07:33:55.497Z,22.27
2018-09-23T07:35:04.960Z,22.25
2018-09-23T07:36:14.377Z,22.35
2018-09-23T07:37:23.038Z,22.24
2018-09-23T07:38:32.464Z,22.27
2018-09-23T07:39:41.997Z,22.25
2018-09-23T07:40:52.065Z,22.35
2018-09-23T07:42:01.741Z,22.35
2018-09-23T07:43:10.909Z,22.28
2018-09-23T07:44:20.600Z,22.35
2018-09-23T07:45:30.011Z,22.31
2018-09-23T07:46:39.439Z,22.35
2018-09-23T07:47:49.116Z,22.37
2018-09-23T07:48:59.100Z,22.35
2018-09-23T07:50:07.988Z,22.42
2018-09-23T07:51:17.671Z,22.36
2018-09-23T07:52:27.349Z,22.42
2018-09-23T07:53:36.499Z,22.4
2018-09-23T07:54:45.665Z,22.43
2018-09-23T07:55:55.089Z,22.46
2018-09-23T07:57:05.037Z,22.47
2018-09-23T07:58:14.468Z,22.42
2018-09-23T07:59:23.901Z,22.43
2018-09-23T08:00:33.598Z,22.43
2018-09-23T08:01:43.053Z,22.43
2018-09-23T08:02:52.224Z,22.46
2018-09-23T08:04:01.689Z,22.46
2018-09-23T08:05:11.369Z,22.46
2018-09-23T08:06:20.288Z,22.39
2018-09-23T08:07:29.973Z,22.36
2018-09-23T08:08:39.145Z,22.37
2018-09-23T08:09:49.304Z,22.49
2018-09-23T08:11:00.206Z,22.39
2018-09-23T08:12:09.910Z,22.36
2018-09-23T08:13:19.886Z,22.45
2018-09-23T08:14:31.196Z,22.43
2018-09-23T08:15:41.877Z,22.52
2018-09-23T08:16:51.669Z,22.39
2018-09-23T08:18:01.220Z,22.54
2018-09-23T08:19:10.602Z,22.49
2018-09-23T08:20:21.279Z,22.42
2018-09-23T08:21:31.631Z,22.6
2018-09-23T08:22:40.806Z,22.6
2018-09-23T08:23:50.266Z,22.54
2018-09-23T08:24:59.849Z,22.55
2018-09-23T08:26:09.066Z,22.6
2018-09-23T08:27:18.502Z,22.49
2018-09-23T08:28:27.942Z,22.55
2018-09-23T08:29:37.368Z,22.49
2018-09-23T08:30:47.079Z,22.51
2018-09-23T08:31:56.511Z,22.58
2018-09-23T08:33:06.179Z,22.55
2018-09-23T08:34:15.357Z,22.61
2018-09-23T08:35:25.051Z,22.52
2018-09-23T08:36:34.728Z,22.54
2018-09-23T08:37:44.191Z,22.6
2018-09-23T08:38:53.887Z,22.52
2018-09-23T08:40:03.479Z,22.62
2018-09-23T08:41:13.290Z,22.64
2018-09-23T08:42:22.739Z,22.62
2018-09-23T08:43:32.190Z,22.67
2018-09-23T08:44:41.622Z,22.61
2018-09-23T08:45:51.582Z,22.67
2018-09-23T08:47:01.287Z,22.57
2018-09-23T08:48:11.288Z,22.55
2018-09-23T08:49:21.200Z,22.65
2018-09-23T08:50:30.118Z,22.65
2018-09-23T08:51:39.937Z,22.68
2018-09-23T08:52:48.799Z,22.61
2018-09-23T08:53:58.541Z,22.67
2018-09-23T08:55:07.956Z,22.57
2018-09-23T08:56:17.393Z,22.58
2018-09-23T08:57:26.607Z,22.55
2018-09-23T08:58:36.085Z,22.58
2018-09-23T08:59:45.259Z,22.58
2018-09-23T09:00:54.943Z,22.65
2018-09-23T09:02:04.134Z,22.6
2018-09-23T09:03:13.839Z,22.7
2018-09-23T09:04:23.269Z,22.58
2018-09-23T09:05:32.444Z,22.58
2018-09-23T09:06:42.558Z,22.58
2018-09-23T09:07:52.040Z,22.57
2018-09-23T09:09:02.009Z,22.7
2018-09-23T09:10:11.692Z,22.67
2018-09-23T09:11:20.654Z,22.61
2018-09-23T09:12:30.386Z,22.73
2018-09-23T09:13:39.944Z,22.57
2018-09-23T09:14:49.685Z,22.57
2018-09-23T09:15:59.187Z,22.57
2018-09-23T09:17:08.357Z,22.58
2018-09-23T09:18:18.700Z,22.57
2018-09-23T09:19:28.057Z,22.57
2018-09-23T09:20:37.747Z,22.6
2018-09-23T09:21:47.190Z,22.57
2018-09-23T09:22:56.374Z,22.64
2018-09-23T09:24:05.899Z,22.58
2018-09-23T09:25:15.409Z,22.58
2018-09-23T09:26:25.341Z,22.67
2018-09-23T09:27:35.066Z,22.58
2018-09-23T09:28:44.518Z,22.55
2018-09-23T09:29:54.209Z,22.6
2018-09-23T09:31:03.658Z,22.67
2018-09-23T09:32:13.072Z,22.61
2018-09-23T09:33:22.755Z,22.58
2018-09-23T09:34:32.188Z,22.55
2018-09-23T09:35:41.896Z,22.65
2018-09-23T09:36:51.601Z,22.58
2018-09-23T09:38:01.592Z,22.58
2018-09-23T09:39:11.291Z,22.73
2018-09-23T09:40:20.736Z,22.64
2018-09-23T09:41:30.433Z,22.68
2018-09-23T09:42:40.101Z,22.7
2018-09-23T09:43:49.537Z,22.7
2018-09-23T09:44:58.977Z,22.75
2018-09-23T09:46:08.654Z,22.7
2018-09-23T09:47:18.183Z,22.75
2018-09-23T09:48:27.871Z,22.8
2018-09-23T09:49:37.024Z,22.76
2018-09-23T09:50:46.724Z,22.79
2018-09-23T09:51:56.654Z,22.72
2018-09-23T09:53:05.821Z,22.8
2018-09-23T09:54:15.768Z,22.77
2018-09-23T09:55:25.320Z,22.82
2018-09-23T09:56:35.553Z,22.85
2018-09-23T09:57:44.979Z,22.83
2018-09-23T09:58:54.126Z,22.82
2018-09-23T10:00:03.541Z,22.85
2018-09-23T10:01:12.697Z,22.79
2018-09-23T10:02:22.123Z,22.82
2018-09-23T10:03:31.797Z,22.86
2018-09-23T10:04:40.966Z,22.82
2018-09-23T10:05:50.140Z,22.9
2018-09-23T10:06:59.570Z,22.88
2018-09-23T10:08:09.258Z,22.9
2018-09-23T10:09:18.708Z,22.86
2018-09-23T10:10:28.658Z,22.86
2018-09-23T10:11:38.587Z,22.9
2018-09-23T10:12:48.535Z,22.9
2018-09-23T10:13:58.406Z,22.86
2018-09-23T10:15:07.842Z,22.91
2018-09-23T10:16:17.019Z,22.94
2018-09-23T10:17:26.169Z,22.91
2018-09-23T10:18:36.097Z,22.95
2018-09-23T10:19:46.439Z,22.97
2018-09-23T10:20:56.358Z,22.97
2018-09-23T10:22:05.809Z,22.9
2018-09-23T10:23:16.623Z,22.95
2018-09-23T10:24:27.520Z,22.91
2018-09-23T10:25:37.594Z,22.86
2018-09-23T10:26:46.793Z,22.9
2018-09-23T10:27:56.250Z,22.97
2018-09-23T10:29:05.681Z,22.94
2018-09-23T10:30:15.357Z,22.95
2018-09-23T10:31:26.011Z,22.95
2018-09-23T10:32:35.830Z,22.94
2018-09-23T10:33:44.742Z,22.95
2018-09-23T10:34:53.888Z,22.94
2018-09-23T10:36:03.127Z,22.97
2018-09-23T10:37:12.651Z,22.98
2018-09-23T10:38:22.305Z,22.9
2018-09-23T10:39:31.806Z,22.98
2018-09-23T10:40:40.977Z,22.94
2018-09-23T10:41:50.683Z,22.95
2018-09-23T10:42:59.878Z,22.95
2018-09-23T10:44:09.046Z,22.95
2018-09-23T10:45:18.474Z,22.91
2018-09-23T10:46:28.160Z,22.85
2018-09-23T10:47:37.076Z,22.97
2018-09-23T10:48:46.518Z,22.91
2018-09-23T10:49:55.943Z,22.9
2018-09-23T10:51:05.361Z,22.95
2018-09-23T10:52:15.039Z,22.95
2018-09-23T10:53:24.449Z,22.92
2018-09-23T10:54:33.640Z,22.94
2018-09-23T10:55:42.891Z,22.88
2018-09-23T10:56:52.801Z,22.92
2018-09-23T10:58:01.991Z,22.83
2018-09-23T10:59:11.200Z,22.9
2018-09-23T11:00:20.907Z,22.86
2018-09-23T11:01:30.356Z,22.86
2018-09-23T11:02:40.024Z,22.85
2018-09-23T11:03:50.085Z,22.88
2018-09-23T11:04:59.707Z,22.83
2018-09-23T11:06:09.134Z,22.86
2018-09-23T11:07:18.909Z,22.88
2018-09-23T11:08:28.874Z,22.85
2018-09-23T11:09:38.594Z,22.88
2018-09-23T11:10:48.781Z,22.92
2018-09-23T11:11:58.478Z,22.86
2018-09-23T11:13:08.149Z,22.92
2018-09-23T11:14:18.117Z,22.85
2018-09-23T11:15:27.691Z,22.9
2018-09-23T11:16:37.401Z,22.86
2018-09-23T11:17:46.305Z,22.83
2018-09-23T11:18:55.724Z,22.9
2018-09-23T11:20:05.638Z,22.83
2018-09-23T11:21:15.334Z,22.9
2018-09-23T11:22:24.221Z,22.88
2018-09-23T11:23:34.004Z,22.92
2018-09-23T11:24:43.997Z,22.88
2018-09-23T11:25:53.593Z,22.94
2018-09-23T11:27:03.288Z,22.94
2018-09-23T11:28:12.980Z,22.9
2018-09-23T11:29:21.884Z,22.92
2018-09-23T11:30:31.302Z,22.95
2018-09-23T11:31:40.811Z,22.97
2018-09-23T11:32:49.983Z,22.97
2018-09-23T11:34:00.072Z,22.97
2018-09-23T11:35:09.762Z,22.97
2018-09-23T11:36:18.935Z,22.97
2018-09-23T11:37:28.372Z,22.98
2018-09-23T11:38:37.271Z,22.98
2018-09-23T11:39:47.440Z,22.97
2018-09-23T11:40:56.934Z,22.97
2018-09-23T11:42:06.367Z,22.97
2018-09-23T11:43:15.577Z,22.98
2018-09-23T11:44:25.308Z,23.02
2018-09-23T11:45:34.760Z,23.12
2018-09-23T11:46:44.502Z,22.97
2018-09-23T11:47:53.917Z,23.09
2018-09-23T11:49:03.354Z,23.04
2018-09-23T11:50:13.310Z,23.09
2018-09-23T11:51:22.502Z,23.02
2018-09-23T11:52:31.662Z,23.04
2018-09-23T11:53:41.360Z,23.02
2018-09-23T11:54:51.098Z,23.05
2018-09-23T11:56:00.521Z,23.05
2018-09-23T11:57:10.468Z,23.02
2018-09-23T11:58:20.174Z,23.01
2018-09-23T11:59:29.595Z,23.04
2018-09-23T12:00:39.024Z,23.07
2018-09-23T12:01:48.732Z,23.02
2018-09-23T12:02:57.912Z,23.02
2018-09-23T12:04:07.346Z,23.02
2018-09-23T12:05:17.044Z,23.02
2018-09-23T12:06:26.986Z,23.04
2018-09-23T12:07:36.198Z,23.01
2018-09-23T12:08:47.068Z,23.09
2018-09-23T12:09:57.212Z,23
2018-09-23T12:11:07.130Z,23.04
2018-09-23T12:12:16.304Z,23.07
2018-09-23T12:13:26.212Z,23.12
2018-09-23T12:14:35.848Z,23.1
2018-09-23T12:15:45.735Z,23.05
2018-09-23T12:16:55.605Z,23.07
2018-09-23T12:18:05.027Z,23.12
2018-09-23T12:19:14.500Z,23.13
2018-09-23T12:20:24.426Z,23.1
2018-09-23T12:21:34.113Z,23.09
2018-09-23T12:22:43.285Z,23.1
2018-09-23T12:23:52.712Z,23.07
2018-09-23T12:25:02.134Z,23.12
2018-09-23T12:26:11.817Z,23.09
2018-09-23T12:27:21.500Z,23.1
2018-09-23T12:28:31.168Z,23.16
2018-09-23T12:29:40.109Z,23.09
2018-09-23T12:30:49.906Z,23.05
2018-09-23T12:31:59.581Z,23.09
2018-09-23T12:33:09.433Z,23.07
2018-09-23T12:34:19.005Z,23.1
2018-09-23T12:35:28.687Z,23.04
2018-09-23T12:36:38.622Z,23.1
2018-09-23T12:37:48.576Z,23.1
2018-09-23T12:38:57.998Z,23.17
2018-09-23T12:40:06.905Z,23.09
2018-09-23T12:41:16.601Z,23.13
2018-09-23T12:42:26.360Z,23.05
2018-09-23T12:43:35.550Z,23.04
2018-09-23T12:44:44.981Z,23.09
2018-09-23T12:45:54.443Z,23.12
2018-09-23T12:47:03.951Z,23.05
2018-09-23T12:48:13.385Z,23.02
2018-09-23T12:49:22.815Z,23.09
2018-09-23T12:50:32.241Z,23.1
2018-09-23T12:51:41.401Z,23.13
2018-09-23T12:52:50.825Z,23.12
2018-09-23T12:54:00.513Z,23.13
2018-09-23T12:55:09.928Z,23.13
2018-09-23T12:56:19.622Z,23.09
2018-09-23T12:57:29.034Z,23.16
2018-09-23T12:58:38.206Z,23.05
2018-09-23T12:59:47.891Z,23.1
2018-09-23T13:00:57.574Z,23.07
2018-09-23T13:02:07.008Z,23.13
2018-09-23T13:03:16.945Z,23.04
2018-09-23T13:04:25.859Z,23.09
2018-09-23T13:05:35.016Z,23.13
2018-09-23T13:06:44.179Z,23.07
2018-09-23T13:07:53.847Z,23.09
2018-09-23T13:09:03.517Z,23.09
2018-09-23T13:10:13.199Z,23.09
2018-09-23T13:11:22.631Z,23.13
2018-09-23T13:12:31.530Z,23.07
2018-09-23T13:13:40.700Z,23.15
2018-09-23T13:14:50.115Z,23.16
2018-09-23T13:15:59.548Z,23.17
2018-09-23T13:17:08.723Z,23.12
2018-09-23T13:18:19.132Z,23.13
2018-09-23T13:19:28.616Z,23.07
2018-09-23T13:20:38.296Z,23.15
2018-09-23T13:21:47.485Z,23.13
2018-09-23T13:22:57.168Z,23.1
2018-09-23T13:24:06.327Z,23.09
2018-09-23T13:25:16.010Z,23.15
2018-09-23T13:26:25.423Z,23.16
2018-09-23T13:27:34.833Z,23.13
2018-09-23T13:28:44.283Z,23.15
2018-09-23T13:29:54.049Z,23.16
2018-09-23T13:31:03.464Z,23.15
2018-09-23T13:32:12.618Z,23.17
2018-09-23T13:33:22.332Z,23.17
2018-09-23T13:34:32.013Z,23.16
2018-09-23T13:35:41.165Z,23.17
2018-09-23T13:36:50.612Z,23.17
2018-09-23T13:38:00.299Z,23.23
2018-09-23T13:39:08.955Z,23.15
2018-09-23T13:40:18.671Z,23.22
2018-09-23T13:41:28.170Z,23.23
2018-09-23T13:42:37.597Z,23.2
2018-09-23T13:43:46.759Z,23.19
2018-09-23T13:44:55.918Z,23.13
2018-09-23T13:46:05.348Z,23.15
2018-09-23T13:47:14.768Z,23.23
2018-09-23T13:48:24.700Z,23.19
2018-09-23T13:49:34.116Z,23.25
2018-09-23T13:50:43.800Z,23.23
2018-09-23T13:51:52.698Z,23.17
2018-09-23T13:53:01.857Z,23.23
2018-09-23T13:54:11.327Z,23.27
2018-09-23T13:55:20.874Z,23.25
2018-09-23T13:56:30.325Z,23.15
2018-09-23T13:57:39.516Z,23.28
2018-09-23T13:58:48.695Z,23.2
2018-09-23T13:59:57.856Z,23.19
2018-09-23T14:01:07.286Z,23.2
2018-09-23T14:02:16.969Z,23.25
2018-09-23T14:03:26.655Z,23.19
2018-09-23T14:04:36.089Z,23.16
2018-09-23T14:05:46.020Z,23.2
2018-09-23T14:06:55.422Z,23.27
2018-09-23T14:08:05.427Z,23.17
2018-09-23T14:09:15.169Z,23.27
2018-09-23T14:10:24.597Z,23.27
2018-09-23T14:11:34.536Z,23.25
2018-09-23T14:12:44.494Z,23.12
2018-09-23T14:13:53.928Z,23.27
2018-09-23T14:15:04.144Z,23.22
2018-09-23T14:16:13.728Z,23.15
2018-09-23T14:17:23.692Z,23.25
2018-09-23T14:18:33.657Z,23.23
2018-09-23T14:19:43.114Z,23.19
2018-09-23T14:20:53.286Z,23.22
2018-09-23T14:22:03.179Z,23.19
2018-09-23T14:23:12.651Z,23.12
2018-09-23T14:24:21.561Z,23.19
2018-09-23T14:25:31.003Z,23.19
2018-09-23T14:26:40.441Z,23.28
2018-09-23T14:27:49.854Z,23.28
2018-09-23T14:28:58.874Z,23.23
2018-09-23T14:30:08.112Z,23.22
2018-09-23T14:31:17.538Z,23.16
2018-09-23T14:32:27.584Z,23.27
2018-09-23T14:33:37.969Z,23.19
2018-09-23T14:34:47.403Z,23.15
2018-09-23T14:35:57.093Z,23.22
2018-09-23T14:37:07.041Z,23.17
2018-09-23T14:38:16.206Z,23.12
2018-09-23T14:39:25.660Z,23.17
2018-09-23T14:40:34.842Z,23.2
2018-09-23T14:41:43.501Z,23.19
2018-09-23T14:42:52.926Z,23.25
2018-09-23T14:44:02.366Z,23.19
2018-09-23T14:45:12.063Z,23.19
2018-09-23T14:46:21.261Z,23.16
2018-09-23T14:47:30.691Z,23.25
2018-09-23T14:48:40.145Z,23.16
2018-09-23T14:49:49.876Z,23.22
2018-09-23T14:50:59.563Z,23.23
2018-09-23T14:52:08.736Z,23.32
2018-09-23T14:53:18.168Z,23.2
2018-09-23T14:54:27.621Z,23.22
2018-09-23T14:55:37.497Z,23.16
2018-09-23T14:56:47.436Z,23.23
2018-09-23T14:57:56.625Z,23.28
2018-09-23T14:59:06.326Z,23.25
2018-09-23T15:00:15.824Z,23.31